RYR98FC LDDU-EGCC
Flight info
| Callsign | RYR98FC |
|---|---|
| Flight time | N/A |
| Altitude | 36000 |
| Route | AMUGO1W AMUGO DCT UNIPA DCT KOTOR DCT GORPA DCT SIMBA DCT MOOCE L604 GASKA DCT MASEK DCT RAVLO Y70 OTBED OTBED1M |
| Aircraft | B738/M-SDE2E3FGHIRWXY/LB1 |
Departure
| Time | 2026-04-29 23:30 |
|---|---|
| Airport | Dubrovnik Ruđer Bošković Airport (LDDU) |
Arrival
| Time | N/A |
|---|---|
| Airport | Manchester Airport (EGCC) |
| Time | Latitude | Longitude | Altitude | Speed | Heading |
|---|---|---|---|---|---|
| 2026-04-29 23:18 | 42.56092 | 18.26305 | 533 ft | 0 kts | 208° |
| 2026-04-29 23:21 | 42.56106 | 18.26316 | 533 ft | 4 kts | 208° |
| 2026-04-29 23:21 | 42.56126 | 18.26337 | 533 ft | 4 kts | 244° |
| 2026-04-29 23:21 | 42.56130 | 18.26369 | 533 ft | 4 kts | 292° |
| 2026-04-29 23:22 | 42.56127 | 18.26376 | 533 ft | 1 kts | 298° |
| 2026-04-29 23:25 | 42.56130 | 18.26369 | 533 ft | 2 kts | 298° |
| 2026-04-29 23:25 | 42.56140 | 18.26343 | 533 ft | 4 kts | 298° |
| 2026-04-29 23:26 | 42.56159 | 18.26296 | 533 ft | 7 kts | 298° |
| 2026-04-29 23:26 | 42.56186 | 18.26229 | 533 ft | 9 kts | 298° |
| 2026-04-29 23:26 | 42.56219 | 18.26146 | 533 ft | 11 kts | 298° |
| 2026-04-29 23:26 | 42.56258 | 18.26048 | 533 ft | 13 kts | 298° |
| 2026-04-29 23:27 | 42.56302 | 18.25937 | 533 ft | 14 kts | 298° |
| 2026-04-29 23:27 | 42.56351 | 18.25812 | 533 ft | 16 kts | 298° |
| 2026-04-29 23:27 | 42.56405 | 18.25675 | 533 ft | 17 kts | 298° |
| 2026-04-29 23:27 | 42.56465 | 18.25530 | 533 ft | 18 kts | 299° |
| 2026-04-29 23:28 | 42.56522 | 18.25386 | 533 ft | 17 kts | 297° |
| 2026-04-29 23:28 | 42.56577 | 18.25246 | 533 ft | 16 kts | 299° |
| 2026-04-29 23:28 | 42.56630 | 18.25112 | 533 ft | 16 kts | 300° |
| 2026-04-29 23:28 | 42.56680 | 18.24982 | 533 ft | 15 kts | 297° |
| 2026-04-29 23:29 | 42.56728 | 18.24860 | 533 ft | 15 kts | 298° |
| 2026-04-29 23:29 | 42.56776 | 18.24742 | 533 ft | 14 kts | 299° |
| 2026-04-29 23:29 | 42.56851 | 18.24673 | 532 ft | 13 kts | 357° |
| 2026-04-29 23:29 | 42.56929 | 18.24729 | 532 ft | 13 kts | 54° |
| 2026-04-29 23:30 | 42.56918 | 18.24855 | 532 ft | 20 kts | 118° |
| 2026-04-29 23:30 | 42.56754 | 18.25269 | 531 ft | 88 kts | 118° |
| 2026-04-29 23:30 | 42.56350 | 18.26289 | 535 ft | 155 kts | 117° |
| 2026-04-29 23:30 | 42.55799 | 18.27674 | 1137 ft | 165 kts | 120° |
| 2026-04-29 23:31 | 42.55219 | 18.29055 | 2000 ft | 174 kts | 120° |
| 2026-04-29 23:31 | 42.54632 | 18.30527 | 2791 ft | 179 kts | 118° |
| 2026-04-29 23:31 | 42.54051 | 18.32059 | 3433 ft | 187 kts | 119° |
| 2026-04-29 23:31 | 42.53347 | 18.33560 | 4123 ft | 191 kts | 136° |
| 2026-04-29 23:32 | 42.52152 | 18.34485 | 4328 ft | 212 kts | 174° |
| 2026-04-29 23:32 | 42.50719 | 18.34129 | 4706 ft | 217 kts | 206° |
| 2026-04-29 23:32 | 42.49338 | 18.33243 | 5277 ft | 221 kts | 205° |
| 2026-04-29 23:32 | 42.47912 | 18.32452 | 5876 ft | 225 kts | 203° |
| 2026-04-29 23:33 | 42.46444 | 18.31658 | 6463 ft | 230 kts | 203° |
| 2026-04-29 23:33 | 42.44891 | 18.30865 | 6937 ft | 244 kts | 202° |
| 2026-04-29 23:33 | 42.43318 | 18.30073 | 7798 ft | 237 kts | 202° |
| 2026-04-29 23:33 | 42.41774 | 18.29292 | 8574 ft | 238 kts | 203° |
| 2026-04-29 23:34 | 42.40308 | 18.28284 | 9262 ft | 237 kts | 225° |
| 2026-04-29 23:34 | 42.39417 | 18.26443 | 9897 ft | 239 kts | 253° |
| 2026-04-29 23:34 | 42.39282 | 18.24121 | 10108 ft | 262 kts | 279° |
| 2026-04-29 23:34 | 42.39763 | 18.21672 | 10551 ft | 274 kts | 287° |
| 2026-04-29 23:35 | 42.40368 | 18.19207 | 11240 ft | 277 kts | 287° |
| 2026-04-29 23:35 | 42.40975 | 18.16722 | 11826 ft | 279 kts | 287° |
| 2026-04-29 23:35 | 42.41572 | 18.14225 | 12072 ft | 279 kts | 287° |
| 2026-04-29 23:35 | 42.42167 | 18.11700 | 12065 ft | 285 kts | 287° |
| 2026-04-29 23:36 | 42.42783 | 18.09057 | 12228 ft | 305 kts | 286° |
| 2026-04-29 23:36 | 42.43431 | 18.06258 | 12396 ft | 326 kts | 287° |
| 2026-04-29 23:36 | 42.44138 | 18.03204 | 12647 ft | 343 kts | 287° |
| 2026-04-29 23:36 | 42.44856 | 18.00095 | 13223 ft | 349 kts | 287° |
| 2026-04-29 23:37 | 42.45574 | 17.96991 | 13960 ft | 350 kts | 287° |
| 2026-04-29 23:37 | 42.46303 | 17.93838 | 14590 ft | 352 kts | 286° |
| 2026-04-29 23:37 | 42.47028 | 17.90668 | 15224 ft | 354 kts | 287° |
| 2026-04-29 23:37 | 42.47762 | 17.87478 | 15879 ft | 356 kts | 287° |
| 2026-04-29 23:38 | 42.48498 | 17.84269 | 16503 ft | 358 kts | 286° |
| 2026-04-29 23:38 | 42.49242 | 17.81034 | 17116 ft | 361 kts | 286° |
| 2026-04-29 23:38 | 42.49989 | 17.77774 | 17717 ft | 363 kts | 286° |
| 2026-04-29 23:38 | 42.50739 | 17.74490 | 18324 ft | 366 kts | 286° |
| 2026-04-29 23:39 | 42.51493 | 17.71189 | 18843 ft | 368 kts | 286° |
| 2026-04-29 23:39 | 42.52251 | 17.67864 | 19372 ft | 370 kts | 286° |
| 2026-04-29 23:39 | 42.53011 | 17.64525 | 19912 ft | 372 kts | 286° |
| 2026-04-29 23:39 | 42.53874 | 17.61216 | 20399 ft | 376 kts | 296° |
| 2026-04-29 23:40 | 42.55407 | 17.58322 | 20903 ft | 382 kts | 311° |
| 2026-04-29 23:40 | 42.57481 | 17.56044 | 21408 ft | 389 kts | 325° |
| 2026-04-29 23:40 | 42.59860 | 17.54247 | 21894 ft | 393 kts | 328° |
| 2026-04-29 23:40 | 42.62287 | 17.52517 | 22350 ft | 396 kts | 328° |
| 2026-04-29 23:41 | 42.64740 | 17.50794 | 22819 ft | 398 kts | 328° |
| 2026-04-29 23:41 | 42.67201 | 17.49062 | 23291 ft | 400 kts | 328° |
| 2026-04-29 23:41 | 42.69677 | 17.47304 | 23761 ft | 402 kts | 328° |
| 2026-04-29 23:41 | 42.72157 | 17.45530 | 24136 ft | 404 kts | 328° |
| 2026-04-29 23:42 | 42.74644 | 17.43738 | 24504 ft | 405 kts | 328° |
| 2026-04-29 23:42 | 42.77138 | 17.41932 | 24878 ft | 407 kts | 327° |
| 2026-04-29 23:42 | 42.79644 | 17.40112 | 25257 ft | 409 kts | 327° |
| 2026-04-29 23:42 | 42.82162 | 17.38279 | 25611 ft | 411 kts | 327° |
| 2026-04-29 23:43 | 42.83835 | 17.37062 | 25841 ft | 412 kts | 327° |
| 2026-04-29 23:43 | 42.86371 | 17.35213 | 26182 ft | 414 kts | 327° |
| 2026-04-29 23:43 | 42.88917 | 17.33352 | 26519 ft | 416 kts | 327° |
| 2026-04-29 23:43 | 42.91467 | 17.31488 | 26892 ft | 417 kts | 327° |
| 2026-04-29 23:44 | 42.94033 | 17.29608 | 27222 ft | 419 kts | 327° |
| 2026-04-29 23:44 | 42.96601 | 17.27728 | 27542 ft | 421 kts | 327° |
| 2026-04-29 23:44 | 42.99187 | 17.25834 | 27838 ft | 422 kts | 327° |
| 2026-04-29 23:44 | 43.01781 | 17.23933 | 28102 ft | 425 kts | 327° |
| 2026-04-29 23:45 | 43.04389 | 17.22019 | 28417 ft | 426 kts | 327° |
| 2026-04-29 23:45 | 43.06996 | 17.20104 | 28768 ft | 426 kts | 327° |
| 2026-04-29 23:45 | 43.09605 | 17.18186 | 29208 ft | 424 kts | 327° |
| 2026-04-29 23:45 | 43.12194 | 17.16283 | 29692 ft | 422 kts | 327° |
| 2026-04-29 23:46 | 43.14770 | 17.14387 | 30170 ft | 419 kts | 326° |
| 2026-04-29 23:46 | 43.17330 | 17.12499 | 30555 ft | 417 kts | 326° |
| 2026-04-29 23:46 | 43.19881 | 17.10617 | 30889 ft | 416 kts | 326° |
| 2026-04-29 23:46 | 43.22424 | 17.08737 | 31229 ft | 415 kts | 326° |
| 2026-04-29 23:47 | 43.24957 | 17.06862 | 31570 ft | 413 kts | 326° |
| 2026-04-29 23:47 | 43.27451 | 17.05015 | 31936 ft | 412 kts | 326° |
| 2026-04-29 23:47 | 43.29961 | 17.03154 | 32341 ft | 409 kts | 326° |
| 2026-04-29 23:47 | 43.32457 | 17.01302 | 32730 ft | 407 kts | 326° |
| 2026-04-29 23:48 | 43.34940 | 16.99457 | 33154 ft | 405 kts | 326° |
| 2026-04-29 23:48 | 43.37406 | 16.97626 | 33650 ft | 400 kts | 326° |
| 2026-04-29 23:48 | 43.39847 | 16.95811 | 33989 ft | 399 kts | 326° |
| 2026-04-29 23:48 | 43.42290 | 16.93991 | 34223 ft | 400 kts | 326° |
| 2026-04-29 23:49 | 43.44737 | 16.92165 | 34421 ft | 400 kts | 326° |
| 2026-04-29 23:49 | 43.47181 | 16.90339 | 34615 ft | 401 kts | 326° |
| 2026-04-29 23:49 | 43.49634 | 16.88506 | 34801 ft | 401 kts | 326° |
| 2026-04-29 23:49 | 43.52089 | 16.86671 | 34985 ft | 402 kts | 326° |
| 2026-04-29 23:50 | 43.54545 | 16.84834 | 35188 ft | 402 kts | 326° |
| 2026-04-29 23:50 | 43.57000 | 16.82996 | 35410 ft | 401 kts | 326° |
| 2026-04-29 23:50 | 43.61914 | 16.79313 | 35754 ft | 403 kts | 326° |
| 2026-04-29 23:51 | 43.64375 | 16.77464 | 35938 ft | 403 kts | 326° |
| 2026-04-29 23:51 | 43.66837 | 16.75613 | 36113 ft | 403 kts | 326° |
| 2026-04-29 23:51 | 43.69305 | 16.73754 | 36108 ft | 406 kts | 326° |
| 2026-04-29 23:52 | 43.74260 | 16.70022 | 36131 ft | 404 kts | 326° |
| 2026-04-29 23:52 | 43.79170 | 16.66318 | 36152 ft | 400 kts | 326° |
| 2026-04-29 23:53 | 43.84040 | 16.62636 | 36122 ft | 397 kts | 326° |
| 2026-04-29 23:53 | 43.88869 | 16.58976 | 36157 ft | 395 kts | 326° |
| 2026-04-29 23:54 | 43.93676 | 16.55324 | 36151 ft | 394 kts | 326° |
| 2026-04-29 23:54 | 43.98496 | 16.51656 | 36192 ft | 401 kts | 326° |
| 2026-04-29 23:55 | 44.03431 | 16.47934 | 36189 ft | 406 kts | 328° |
| 2026-04-29 23:55 | 44.08579 | 16.44607 | 36170 ft | 409 kts | 330° |
| 2026-04-29 23:56 | 44.13782 | 16.41397 | 36198 ft | 408 kts | 330° |
| 2026-04-29 23:56 | 44.18958 | 16.38174 | 36178 ft | 407 kts | 330° |
| 2026-04-29 23:57 | 44.24108 | 16.34933 | 36195 ft | 405 kts | 329° |
| 2026-04-29 23:57 | 44.29219 | 16.31698 | 36222 ft | 402 kts | 329° |
| 2026-04-29 23:58 | 44.34298 | 16.28474 | 36234 ft | 399 kts | 329° |
| 2026-04-29 23:58 | 44.39346 | 16.25259 | 36234 ft | 398 kts | 329° |
| 2026-04-29 23:59 | 44.44369 | 16.22057 | 36245 ft | 396 kts | 329° |
| 2026-04-29 23:59 | 44.49352 | 16.18857 | 36266 ft | 394 kts | 329° |
| 2026-04-30 00:00 | 44.54337 | 16.15678 | 36275 ft | 394 kts | 329° |
| 2026-04-30 00:00 | 44.59334 | 16.12479 | 36272 ft | 395 kts | 329° |
| 2026-04-30 00:01 | 44.64344 | 16.09264 | 36304 ft | 397 kts | 329° |
| 2026-04-30 00:01 | 44.69378 | 16.06026 | 36275 ft | 398 kts | 329° |
| 2026-04-30 00:02 | 44.74389 | 16.02795 | 36296 ft | 399 kts | 329° |
| 2026-04-30 00:02 | 44.79488 | 15.99500 | 36286 ft | 401 kts | 329° |
| 2026-04-30 00:03 | 44.84564 | 15.96216 | 36329 ft | 402 kts | 329° |
| 2026-04-30 00:03 | 44.89621 | 15.92938 | 36313 ft | 402 kts | 329° |
| 2026-04-30 00:04 | 44.94707 | 15.89636 | 36303 ft | 403 kts | 329° |
| 2026-04-30 00:04 | 44.99795 | 15.86323 | 36303 ft | 402 kts | 329° |
| 2026-04-30 00:05 | 45.04865 | 15.83016 | 36308 ft | 401 kts | 330° |
| 2026-04-30 00:05 | 45.09938 | 15.79701 | 36320 ft | 402 kts | 330° |
| 2026-04-30 00:06 | 45.15013 | 15.76378 | 36321 ft | 401 kts | 330° |
| 2026-04-30 00:06 | 45.20083 | 15.73052 | 36320 ft | 402 kts | 330° |
| 2026-04-30 00:07 | 45.25157 | 15.69714 | 36310 ft | 402 kts | 330° |
| 2026-04-30 00:07 | 45.30236 | 15.66370 | 36317 ft | 403 kts | 330° |
| 2026-04-30 00:08 | 45.35331 | 15.63006 | 36298 ft | 405 kts | 330° |
| 2026-04-30 00:08 | 45.40445 | 15.59623 | 36299 ft | 406 kts | 330° |
| 2026-04-30 00:09 | 45.45570 | 15.56233 | 36317 ft | 407 kts | 331° |
| 2026-04-30 00:09 | 45.50726 | 15.52846 | 36333 ft | 409 kts | 332° |
| 2026-04-30 00:10 | 45.55872 | 15.49467 | 36324 ft | 410 kts | 331° |
| 2026-04-30 00:10 | 45.61104 | 15.46021 | 36319 ft | 412 kts | 331° |
| 2026-04-30 00:11 | 45.66313 | 15.42582 | 36309 ft | 413 kts | 331° |
| 2026-04-30 00:11 | 45.71496 | 15.39150 | 36329 ft | 413 kts | 331° |
| 2026-04-30 00:12 | 45.76712 | 15.35689 | 36330 ft | 412 kts | 330° |
| 2026-04-30 00:12 | 45.81647 | 15.31598 | 36347 ft | 409 kts | 324° |
| 2026-04-30 00:13 | 45.86432 | 15.27187 | 36332 ft | 409 kts | 324° |
| 2026-04-30 00:13 | 45.91217 | 15.22779 | 36332 ft | 408 kts | 324° |
| 2026-04-30 00:14 | 45.96003 | 15.18410 | 36351 ft | 407 kts | 325° |
| 2026-04-30 00:14 | 46.00788 | 15.14057 | 36325 ft | 407 kts | 325° |
| 2026-04-30 00:15 | 46.05575 | 15.09700 | 36340 ft | 407 kts | 325° |
| 2026-04-30 00:15 | 46.10352 | 15.05343 | 36328 ft | 407 kts | 325° |
| 2026-04-30 00:16 | 46.15137 | 15.00970 | 36338 ft | 407 kts | 325° |
| 2026-04-30 00:16 | 46.19926 | 14.96585 | 36329 ft | 408 kts | 325° |
| 2026-04-30 00:17 | 46.24729 | 14.92175 | 36315 ft | 410 kts | 326° |
| 2026-04-30 00:17 | 46.29545 | 14.87746 | 36320 ft | 412 kts | 326° |
| 2026-04-30 00:18 | 46.34382 | 14.83288 | 36320 ft | 413 kts | 326° |
| 2026-04-30 00:18 | 46.39229 | 14.78810 | 36324 ft | 413 kts | 326° |
| 2026-04-30 00:19 | 46.44079 | 14.74320 | 36346 ft | 414 kts | 326° |
| 2026-04-30 00:19 | 46.48942 | 14.69811 | 36335 ft | 416 kts | 326° |
| 2026-04-30 00:20 | 46.53818 | 14.65278 | 36312 ft | 417 kts | 326° |
| 2026-04-30 00:20 | 46.58701 | 14.60721 | 36314 ft | 417 kts | 326° |
| 2026-04-30 00:21 | 46.63552 | 14.56195 | 36322 ft | 417 kts | 326° |
| 2026-04-30 00:21 | 46.68433 | 14.51631 | 36327 ft | 417 kts | 327° |
| 2026-04-30 00:22 | 46.73304 | 14.47063 | 36327 ft | 416 kts | 327° |
| 2026-04-30 00:22 | 46.78175 | 14.42487 | 36315 ft | 416 kts | 327° |
| 2026-04-30 00:23 | 46.83040 | 14.37904 | 36307 ft | 416 kts | 327° |
| 2026-04-30 00:23 | 46.87896 | 14.33320 | 36311 ft | 415 kts | 327° |
| 2026-04-30 00:24 | 46.92743 | 14.28736 | 36322 ft | 415 kts | 327° |
| 2026-04-30 00:24 | 46.97584 | 14.24146 | 36314 ft | 415 kts | 327° |
| 2026-04-30 00:25 | 47.02426 | 14.19544 | 36308 ft | 415 kts | 327° |
| 2026-04-30 00:25 | 47.07240 | 14.14959 | 36304 ft | 415 kts | 327° |
| 2026-04-30 00:26 | 47.12085 | 14.10337 | 36284 ft | 415 kts | 327° |
| 2026-04-30 00:26 | 47.16922 | 14.05709 | 36307 ft | 416 kts | 328° |
| 2026-04-30 00:27 | 47.21772 | 14.01060 | 36325 ft | 416 kts | 328° |
| 2026-04-30 00:27 | 47.26626 | 13.96401 | 36317 ft | 417 kts | 328° |
| 2026-04-30 00:28 | 47.31487 | 13.91722 | 36319 ft | 418 kts | 328° |
| 2026-04-30 00:28 | 47.36359 | 13.87020 | 36330 ft | 419 kts | 328° |
| 2026-04-30 00:29 | 47.41236 | 13.82300 | 36316 ft | 420 kts | 328° |
| 2026-04-30 00:29 | 47.46115 | 13.77572 | 36310 ft | 419 kts | 328° |
| 2026-04-30 00:30 | 47.50979 | 13.72849 | 36322 ft | 418 kts | 328° |
| 2026-04-30 00:30 | 47.55840 | 13.68114 | 36326 ft | 418 kts | 328° |
| 2026-04-30 00:31 | 47.60692 | 13.63377 | 36338 ft | 418 kts | 328° |
| 2026-04-30 00:31 | 47.64757 | 13.59402 | 36331 ft | 418 kts | 328° |
| 2026-04-30 00:32 | 47.69603 | 13.54658 | 36310 ft | 417 kts | 328° |
| 2026-04-30 00:32 | 47.74438 | 13.49909 | 36325 ft | 417 kts | 328° |
| 2026-04-30 00:33 | 47.79240 | 13.45180 | 36348 ft | 417 kts | 328° |
| 2026-04-30 00:33 | 47.84078 | 13.40406 | 36345 ft | 417 kts | 328° |
| 2026-04-30 00:34 | 47.88916 | 13.35621 | 36358 ft | 418 kts | 329° |
| 2026-04-30 00:34 | 47.93764 | 13.30813 | 36336 ft | 419 kts | 329° |
| 2026-04-30 00:35 | 47.98626 | 13.25987 | 36314 ft | 420 kts | 329° |
| 2026-04-30 00:35 | 48.03488 | 13.21145 | 36337 ft | 420 kts | 329° |
| 2026-04-30 00:36 | 48.08355 | 13.16288 | 36350 ft | 421 kts | 329° |
| 2026-04-30 00:36 | 48.13226 | 13.11414 | 36356 ft | 422 kts | 329° |
| 2026-04-30 00:37 | 48.18108 | 13.06519 | 36350 ft | 422 kts | 329° |
| 2026-04-30 00:37 | 48.22990 | 13.01613 | 36354 ft | 423 kts | 328° |
| 2026-04-30 00:38 | 48.27824 | 12.96555 | 36355 ft | 424 kts | 327° |
| 2026-04-30 00:38 | 48.32617 | 12.91405 | 36344 ft | 423 kts | 327° |
| 2026-04-30 00:39 | 48.37405 | 12.86255 | 36356 ft | 423 kts | 328° |
| 2026-04-30 00:39 | 48.42205 | 12.81104 | 36359 ft | 423 kts | 328° |
| 2026-04-30 00:40 | 48.46997 | 12.75959 | 36365 ft | 423 kts | 328° |
| 2026-04-30 00:40 | 48.51785 | 12.70810 | 36365 ft | 423 kts | 328° |
| 2026-04-30 00:41 | 48.56574 | 12.65642 | 36371 ft | 423 kts | 328° |
| 2026-04-30 00:41 | 48.61357 | 12.60466 | 36371 ft | 423 kts | 328° |
| 2026-04-30 00:42 | 48.66136 | 12.55282 | 36366 ft | 423 kts | 328° |
| 2026-04-30 00:42 | 48.70917 | 12.50088 | 36380 ft | 423 kts | 328° |
| 2026-04-30 00:43 | 48.75659 | 12.44925 | 36372 ft | 423 kts | 328° |
| 2026-04-30 00:43 | 48.80435 | 12.39711 | 36379 ft | 423 kts | 328° |
| 2026-04-30 00:44 | 48.85205 | 12.34491 | 36369 ft | 423 kts | 328° |
| 2026-04-30 00:44 | 48.89965 | 12.29269 | 36380 ft | 422 kts | 329° |
| 2026-04-30 00:45 | 48.94726 | 12.24033 | 36386 ft | 422 kts | 329° |
| 2026-04-30 00:45 | 48.99486 | 12.18786 | 36385 ft | 423 kts | 328° |
| 2026-04-30 00:46 | 49.04248 | 12.13523 | 36397 ft | 423 kts | 328° |
| 2026-04-30 00:46 | 49.09011 | 12.08247 | 36400 ft | 424 kts | 328° |
| 2026-04-30 00:47 | 49.13779 | 12.02950 | 36390 ft | 424 kts | 329° |
| 2026-04-30 00:47 | 49.18552 | 11.97639 | 36403 ft | 424 kts | 329° |
| 2026-04-30 00:48 | 49.23332 | 11.92306 | 36390 ft | 426 kts | 329° |
| 2026-04-30 00:48 | 49.28121 | 11.86947 | 36404 ft | 427 kts | 329° |
| 2026-04-30 00:49 | 49.32925 | 11.81561 | 36405 ft | 428 kts | 328° |
| 2026-04-30 00:49 | 49.37735 | 11.76155 | 36418 ft | 429 kts | 329° |
| 2026-04-30 00:50 | 49.42547 | 11.70732 | 36405 ft | 429 kts | 329° |
| 2026-04-30 00:50 | 49.47361 | 11.65292 | 36405 ft | 429 kts | 329° |
| 2026-04-30 00:51 | 49.52163 | 11.59854 | 36408 ft | 429 kts | 329° |
| 2026-04-30 00:51 | 49.56913 | 11.54378 | 36397 ft | 431 kts | 324° |
| 2026-04-30 00:52 | 49.61142 | 11.47723 | 36408 ft | 436 kts | 318° |
| 2026-04-30 00:52 | 49.65314 | 11.40927 | 36410 ft | 436 kts | 320° |
| 2026-04-30 00:53 | 49.69536 | 11.34218 | 36406 ft | 435 kts | 320° |
| 2026-04-30 00:53 | 49.73759 | 11.27516 | 36404 ft | 435 kts | 320° |
| 2026-04-30 00:54 | 49.77966 | 11.20801 | 36399 ft | 435 kts | 320° |
| 2026-04-30 00:54 | 49.82154 | 11.14053 | 36410 ft | 434 kts | 320° |
| 2026-04-30 00:55 | 49.86338 | 11.07293 | 36414 ft | 435 kts | 320° |
| 2026-04-30 00:55 | 49.92613 | 10.97139 | 36423 ft | 435 kts | 320° |
| 2026-04-30 00:56 | 49.96802 | 10.90343 | 36419 ft | 435 kts | 320° |
| 2026-04-30 00:56 | 50.00984 | 10.83540 | 36424 ft | 435 kts | 320° |
| 2026-04-30 00:57 | 50.05137 | 10.76768 | 36430 ft | 436 kts | 320° |
| 2026-04-30 00:57 | 50.09322 | 10.69932 | 36424 ft | 437 kts | 320° |
| 2026-04-30 00:58 | 50.13522 | 10.63094 | 36426 ft | 437 kts | 320° |
| 2026-04-30 00:58 | 50.17720 | 10.56227 | 36402 ft | 437 kts | 320° |
| 2026-04-30 00:59 | 50.21873 | 10.49292 | 36425 ft | 437 kts | 319° |
| 2026-04-30 00:59 | 50.26082 | 10.42453 | 36431 ft | 436 kts | 321° |
| 2026-04-30 01:00 | 50.30345 | 10.35690 | 36436 ft | 437 kts | 321° |
| 2026-04-30 01:00 | 50.34592 | 10.28888 | 36444 ft | 438 kts | 321° |
| 2026-04-30 01:01 | 50.38732 | 10.21842 | 36436 ft | 440 kts | 317° |
| 2026-04-30 01:01 | 50.42728 | 10.14566 | 36433 ft | 441 kts | 317° |
| 2026-04-30 01:02 | 50.46732 | 10.07283 | 36439 ft | 440 kts | 317° |
| 2026-04-30 01:02 | 50.50725 | 10.00073 | 36435 ft | 440 kts | 317° |
| 2026-04-30 01:03 | 50.54769 | 9.92775 | 36443 ft | 440 kts | 317° |
| 2026-04-30 01:03 | 50.58761 | 9.85557 | 36430 ft | 440 kts | 317° |
| 2026-04-30 01:04 | 50.62795 | 9.78234 | 36419 ft | 440 kts | 317° |
| 2026-04-30 01:04 | 50.66769 | 9.71001 | 36426 ft | 439 kts | 317° |
| 2026-04-30 01:05 | 50.70762 | 9.63714 | 36446 ft | 440 kts | 317° |
| 2026-04-30 01:05 | 50.74524 | 9.56048 | 36441 ft | 446 kts | 308° |
| 2026-04-30 01:06 | 50.77736 | 9.47616 | 36448 ft | 449 kts | 306° |
| 2026-04-30 01:06 | 50.80890 | 9.39094 | 36411 ft | 450 kts | 306° |
| 2026-04-30 01:07 | 50.84076 | 9.30595 | 36435 ft | 449 kts | 307° |
| 2026-04-30 01:07 | 50.87290 | 9.22095 | 36452 ft | 450 kts | 307° |
| 2026-04-30 01:08 | 50.90513 | 9.13572 | 36448 ft | 451 kts | 307° |
| 2026-04-30 01:08 | 50.93731 | 9.05038 | 36441 ft | 451 kts | 307° |
| 2026-04-30 01:09 | 50.96945 | 8.96483 | 36445 ft | 451 kts | 306° |
| 2026-04-30 01:09 | 51.00152 | 8.87917 | 36448 ft | 452 kts | 306° |
| 2026-04-30 01:10 | 51.03360 | 8.79325 | 36447 ft | 452 kts | 306° |
| 2026-04-30 01:10 | 51.06559 | 8.70722 | 36438 ft | 452 kts | 306° |
| 2026-04-30 01:11 | 51.09759 | 8.62089 | 36446 ft | 452 kts | 306° |
| 2026-04-30 01:11 | 51.12946 | 8.53462 | 36413 ft | 452 kts | 306° |
| 2026-04-30 01:12 | 51.16125 | 8.44829 | 36426 ft | 452 kts | 306° |
| 2026-04-30 01:12 | 51.19295 | 8.36194 | 36422 ft | 451 kts | 306° |
| 2026-04-30 01:13 | 51.22453 | 8.27552 | 36426 ft | 451 kts | 306° |
| 2026-04-30 01:13 | 51.25606 | 8.18901 | 36414 ft | 451 kts | 306° |
| 2026-04-30 01:14 | 51.28730 | 8.10303 | 36399 ft | 451 kts | 306° |
| 2026-04-30 01:14 | 51.31871 | 8.01632 | 36401 ft | 451 kts | 305° |
| 2026-04-30 01:15 | 51.35004 | 7.92946 | 36412 ft | 451 kts | 305° |
| 2026-04-30 01:15 | 51.38134 | 7.84245 | 36404 ft | 452 kts | 305° |
| 2026-04-30 01:16 | 51.41259 | 7.75519 | 36408 ft | 452 kts | 305° |
| 2026-04-30 01:16 | 51.44387 | 7.66760 | 36375 ft | 453 kts | 305° |
| 2026-04-30 01:17 | 51.47510 | 7.57982 | 36392 ft | 454 kts | 304° |
| 2026-04-30 01:17 | 51.50634 | 7.49173 | 36401 ft | 455 kts | 304° |
| 2026-04-30 01:18 | 51.53755 | 7.40339 | 36401 ft | 456 kts | 304° |
| 2026-04-30 01:18 | 51.56878 | 7.31474 | 36404 ft | 456 kts | 304° |
| 2026-04-30 01:19 | 51.59472 | 7.24087 | 36388 ft | 456 kts | 304° |
| 2026-04-30 01:19 | 51.62585 | 7.15182 | 36410 ft | 456 kts | 304° |
| 2026-04-30 01:20 | 51.65690 | 7.06276 | 36416 ft | 456 kts | 304° |
| 2026-04-30 01:20 | 51.68791 | 6.97354 | 36413 ft | 456 kts | 304° |
| 2026-04-30 01:21 | 51.71879 | 6.88432 | 36412 ft | 455 kts | 303° |
| 2026-04-30 01:21 | 51.74957 | 6.79510 | 36392 ft | 455 kts | 303° |
| 2026-04-30 01:22 | 51.78025 | 6.70584 | 36410 ft | 454 kts | 303° |
| 2026-04-30 01:22 | 51.81085 | 6.61651 | 36409 ft | 454 kts | 303° |
| 2026-04-30 01:23 | 51.84139 | 6.52706 | 36406 ft | 454 kts | 303° |
| 2026-04-30 01:23 | 51.87186 | 6.43744 | 36403 ft | 454 kts | 303° |
| 2026-04-30 01:24 | 51.90225 | 6.34774 | 36408 ft | 454 kts | 303° |
| 2026-04-30 01:24 | 51.93257 | 6.25793 | 36406 ft | 454 kts | 302° |
| 2026-04-30 01:25 | 51.96284 | 6.16797 | 36404 ft | 455 kts | 302° |
| 2026-04-30 01:25 | 51.99307 | 6.07779 | 36402 ft | 456 kts | 302° |
| 2026-04-30 01:26 | 52.02329 | 5.98732 | 36399 ft | 456 kts | 302° |
| 2026-04-30 01:26 | 52.05348 | 5.89659 | 36404 ft | 457 kts | 302° |
| 2026-04-30 01:27 | 52.08343 | 5.80622 | 36395 ft | 457 kts | 302° |
| 2026-04-30 01:27 | 52.11375 | 5.71444 | 36407 ft | 458 kts | 302° |
| 2026-04-30 01:28 | 52.14363 | 5.62366 | 36406 ft | 459 kts | 302° |
| 2026-04-30 01:28 | 52.17369 | 5.53206 | 36410 ft | 458 kts | 301° |
| 2026-04-30 01:29 | 52.20367 | 5.44027 | 36410 ft | 459 kts | 301° |
| 2026-04-30 01:29 | 52.23357 | 5.34829 | 36406 ft | 459 kts | 301° |
| 2026-04-30 01:30 | 52.26313 | 5.25702 | 36423 ft | 459 kts | 301° |
| 2026-04-30 01:30 | 52.29292 | 5.16489 | 36398 ft | 459 kts | 301° |
| 2026-04-30 01:31 | 52.32268 | 5.07247 | 36404 ft | 459 kts | 301° |
| 2026-04-30 01:31 | 52.35236 | 4.97993 | 36402 ft | 460 kts | 301° |
| 2026-04-30 01:32 | 52.38199 | 4.88719 | 36393 ft | 459 kts | 300° |
| 2026-04-30 01:32 | 52.41150 | 4.79442 | 36408 ft | 459 kts | 300° |
| 2026-04-30 01:33 | 52.44095 | 4.70151 | 36411 ft | 459 kts | 300° |
| 2026-04-30 01:33 | 52.47033 | 4.60850 | 36384 ft | 459 kts | 300° |
| 2026-04-30 01:34 | 52.49961 | 4.51542 | 36407 ft | 459 kts | 300° |
| 2026-04-30 01:34 | 52.52881 | 4.42222 | 36408 ft | 459 kts | 300° |
| 2026-04-30 01:35 | 52.55791 | 4.32899 | 36401 ft | 458 kts | 300° |
| 2026-04-30 01:35 | 52.58690 | 4.23580 | 36404 ft | 458 kts | 300° |
| 2026-04-30 01:36 | 52.61563 | 4.14305 | 36405 ft | 458 kts | 300° |
| 2026-04-30 01:36 | 52.64446 | 4.04962 | 36404 ft | 458 kts | 300° |
| 2026-04-30 01:37 | 52.67322 | 3.95606 | 36399 ft | 458 kts | 299° |
| 2026-04-30 01:37 | 52.70192 | 3.86237 | 36408 ft | 458 kts | 299° |
| 2026-04-30 01:38 | 52.73050 | 3.76864 | 36403 ft | 458 kts | 299° |
| 2026-04-30 01:38 | 52.75906 | 3.67466 | 36400 ft | 458 kts | 299° |
| 2026-04-30 01:39 | 52.78752 | 3.58064 | 36399 ft | 458 kts | 298° |
| 2026-04-30 01:39 | 52.81589 | 3.48645 | 36395 ft | 458 kts | 298° |
| 2026-04-30 01:40 | 52.84422 | 3.39210 | 36395 ft | 458 kts | 298° |
| 2026-04-30 01:40 | 52.87247 | 3.29767 | 36394 ft | 458 kts | 298° |
| 2026-04-30 01:41 | 52.90067 | 3.20308 | 36393 ft | 458 kts | 298° |
| 2026-04-30 01:41 | 52.92410 | 3.10492 | 36392 ft | 461 kts | 284° |
| 2026-04-30 01:42 | 52.93745 | 3.00103 | 36396 ft | 461 kts | 282° |
| 2026-04-30 01:42 | 52.95026 | 2.89757 | 36400 ft | 462 kts | 282° |
| 2026-04-30 01:43 | 52.96355 | 2.79334 | 36397 ft | 462 kts | 283° |
| 2026-04-30 01:43 | 52.97703 | 2.68907 | 36397 ft | 463 kts | 283° |
| 2026-04-30 01:44 | 52.99046 | 2.58467 | 36395 ft | 462 kts | 283° |
| 2026-04-30 01:44 | 53.00378 | 2.48028 | 36380 ft | 462 kts | 282° |
| 2026-04-30 01:45 | 53.01698 | 2.37586 | 36389 ft | 462 kts | 282° |
| 2026-04-30 01:45 | 53.03010 | 2.27125 | 36384 ft | 462 kts | 282° |
| 2026-04-30 01:46 | 53.04312 | 2.16688 | 36383 ft | 461 kts | 282° |
| 2026-04-30 01:46 | 53.05600 | 2.06270 | 36374 ft | 457 kts | 282° |
| 2026-04-30 01:47 | 53.06229 | 2.01159 | 36365 ft | 445 kts | 281° |
| 2026-04-30 01:47 | 53.06840 | 1.96188 | 36361 ft | 435 kts | 281° |
| 2026-04-30 01:47 | 53.08038 | 1.86372 | 36378 ft | 433 kts | 281° |
| 2026-04-30 01:48 | 53.09226 | 1.76584 | 36380 ft | 431 kts | 281° |
| 2026-04-30 01:48 | 53.10400 | 1.66831 | 36388 ft | 429 kts | 281° |
| 2026-04-30 01:49 | 53.11558 | 1.57154 | 36376 ft | 429 kts | 281° |
| 2026-04-30 01:49 | 53.12711 | 1.47431 | 36391 ft | 428 kts | 280° |
| 2026-04-30 01:50 | 53.13851 | 1.37711 | 36379 ft | 428 kts | 280° |
| 2026-04-30 01:50 | 53.14989 | 1.27989 | 36383 ft | 428 kts | 280° |
| 2026-04-30 01:51 | 53.16123 | 1.18253 | 36386 ft | 428 kts | 280° |
| 2026-04-30 01:51 | 53.17243 | 1.08508 | 36390 ft | 428 kts | 279° |
| 2026-04-30 01:52 | 53.18359 | 0.98741 | 36386 ft | 429 kts | 279° |
| 2026-04-30 01:52 | 53.19466 | 0.88973 | 36378 ft | 429 kts | 279° |
| 2026-04-30 01:53 | 53.20565 | 0.79197 | 36374 ft | 428 kts | 279° |
| 2026-04-30 01:53 | 53.21654 | 0.69444 | 36375 ft | 427 kts | 279° |
| 2026-04-30 01:54 | 53.22734 | 0.59709 | 36373 ft | 426 kts | 279° |
| 2026-04-30 01:54 | 53.23805 | 0.49982 | 36388 ft | 426 kts | 278° |
| 2026-04-30 01:55 | 53.24865 | 0.40262 | 36372 ft | 425 kts | 278° |
| 2026-04-30 01:55 | 53.25901 | 0.30610 | 36382 ft | 424 kts | 278° |
| 2026-04-30 01:56 | 53.26933 | 0.20916 | 36376 ft | 424 kts | 278° |
| 2026-04-30 01:56 | 53.27958 | 0.11230 | 36374 ft | 423 kts | 278° |
| 2026-04-30 01:57 | 53.28976 | 0.01543 | 36377 ft | 423 kts | 278° |
| 2026-04-30 01:57 | 53.30000 | -0.08148 | 36369 ft | 425 kts | 278° |
| 2026-04-30 01:58 | 53.31047 | -0.17891 | 36357 ft | 426 kts | 278° |
| 2026-04-30 01:58 | 53.32102 | -0.27619 | 36355 ft | 425 kts | 278° |
| 2026-04-30 01:59 | 53.33685 | -0.42170 | 36355 ft | 423 kts | 278° |
| 2026-04-30 02:00 | 53.34740 | -0.51848 | 36352 ft | 422 kts | 278° |
| 2026-04-30 02:00 | 53.35791 | -0.61509 | 36359 ft | 422 kts | 278° |
| 2026-04-30 02:01 | 53.36842 | -0.71164 | 36367 ft | 422 kts | 278° |
| 2026-04-30 02:01 | 53.37895 | -0.80846 | 36368 ft | 422 kts | 278° |
| 2026-04-30 02:02 | 53.38949 | -0.90527 | 36374 ft | 423 kts | 278° |
| 2026-04-30 02:02 | 53.39999 | -1.00171 | 36380 ft | 424 kts | 278° |
| 2026-04-30 02:03 | 53.41067 | -1.09900 | 36378 ft | 425 kts | 278° |
| 2026-04-30 02:03 | 53.42161 | -1.19667 | 36383 ft | 427 kts | 278° |
| 2026-04-30 02:04 | 53.43261 | -1.29449 | 36380 ft | 428 kts | 278° |
| 2026-04-30 02:04 | 53.44367 | -1.39256 | 36390 ft | 428 kts | 278° |
| 2026-04-30 02:05 | 53.45482 | -1.49134 | 36388 ft | 429 kts | 278° |
| 2026-04-30 02:05 | 53.46587 | -1.58897 | 36380 ft | 429 kts | 277° |
| 2026-04-30 02:06 | 53.47724 | -1.68734 | 36373 ft | 429 kts | 278° |
| 2026-04-30 02:06 | 53.48873 | -1.78577 | 36385 ft | 429 kts | 278° |
| 2026-04-30 02:07 | 53.50024 | -1.88412 | 36375 ft | 429 kts | 278° |
| 2026-04-30 02:07 | 53.51178 | -1.98264 | 36356 ft | 430 kts | 278° |
| 2026-04-30 02:08 | 53.52331 | -2.08112 | 36362 ft | 429 kts | 277° |
| 2026-04-30 02:08 | 53.53302 | -2.16292 | 36361 ft | 429 kts | 278° |
| 2026-04-30 02:09 | 53.54482 | -2.26118 | 36359 ft | 428 kts | 278° |
| 2026-04-30 02:09 | 53.55665 | -2.35919 | 36338 ft | 427 kts | 278° |
| 2026-04-30 02:10 | 53.56849 | -2.45693 | 36334 ft | 426 kts | 278° |
| 2026-04-30 02:10 | 53.58028 | -2.55454 | 36331 ft | 425 kts | 278° |
| 2026-04-30 02:11 | 53.59215 | -2.65211 | 36335 ft | 426 kts | 278° |
| 2026-04-30 02:11 | 53.60424 | -2.74971 | 36334 ft | 426 kts | 278° |
| 2026-04-30 02:12 | 53.61638 | -2.84732 | 36329 ft | 426 kts | 278° |
| 2026-04-30 02:12 | 53.62855 | -2.94503 | 36325 ft | 427 kts | 278° |
| 2026-04-30 02:13 | 53.64077 | -3.04302 | 36327 ft | 427 kts | 278° |
| 2026-04-30 02:13 | 53.65297 | -3.14119 | 36340 ft | 428 kts | 278° |
| 2026-04-30 02:14 | 53.66478 | -3.23936 | 36325 ft | 427 kts | 278° |
| 2026-04-30 02:14 | 53.67636 | -3.33725 | 36305 ft | 424 kts | 278° |
| 2026-04-30 02:15 | 53.68782 | -3.43456 | 36308 ft | 421 kts | 278° |
| 2026-04-30 02:15 | 53.69915 | -3.53041 | 36308 ft | 418 kts | 278° |
| 2026-04-30 02:16 | 53.71065 | -3.62625 | 36305 ft | 415 kts | 278° |
| 2026-04-30 02:16 | 53.72196 | -3.72165 | 36310 ft | 414 kts | 278° |
| 2026-04-30 02:17 | 53.73318 | -3.81753 | 36309 ft | 420 kts | 278° |
| 2026-04-30 02:17 | 53.74455 | -3.91508 | 36314 ft | 425 kts | 277° |
| 2026-04-30 02:18 | 53.75594 | -4.01347 | 36303 ft | 427 kts | 278° |
| 2026-04-30 02:18 | 53.76728 | -4.11202 | 36290 ft | 427 kts | 278° |
| 2026-04-30 02:19 | 53.77873 | -4.20963 | 36306 ft | 420 kts | 277° |
| 2026-04-30 02:19 | 53.79017 | -4.30605 | 36303 ft | 417 kts | 278° |
| 2026-04-30 02:20 | 53.80152 | -4.40211 | 36293 ft | 416 kts | 277° |
| 2026-04-30 02:20 | 53.81286 | -4.49730 | 36293 ft | 416 kts | 277° |
| 2026-04-30 02:21 | 53.82445 | -4.59396 | 36305 ft | 422 kts | 277° |
| 2026-04-30 02:21 | 53.83593 | -4.69172 | 36290 ft | 425 kts | 277° |
| 2026-04-30 02:22 | 53.84757 | -4.78984 | 36282 ft | 423 kts | 278° |
| 2026-04-30 02:22 | 53.85939 | -4.88642 | 36282 ft | 417 kts | 278° |
| 2026-04-30 02:23 | 53.87113 | -4.98251 | 36276 ft | 416 kts | 278° |
| 2026-04-30 02:23 | 53.88274 | -5.07851 | 36281 ft | 416 kts | 278° |
| 2026-04-30 02:24 | 53.89446 | -5.17464 | 36289 ft | 417 kts | 278° |
| 2026-04-30 02:24 | 53.90627 | -5.27090 | 36311 ft | 417 kts | 278° |
| 2026-04-30 02:25 | 53.91799 | -5.36724 | 36291 ft | 417 kts | 278° |
| 2026-04-30 02:25 | 53.92973 | -5.46373 | 36288 ft | 418 kts | 278° |
| 2026-04-30 02:26 | 53.94147 | -5.56046 | 36293 ft | 419 kts | 278° |
| 2026-04-30 02:26 | 53.95323 | -5.65739 | 36288 ft | 419 kts | 278° |
| 2026-04-30 02:27 | 53.96499 | -5.75441 | 36289 ft | 420 kts | 278° |
| 2026-04-30 02:27 | 53.97674 | -5.85146 | 36289 ft | 420 kts | 278° |
| 2026-04-30 02:28 | 53.98849 | -5.94869 | 36284 ft | 420 kts | 278° |
| 2026-04-30 02:28 | 54.00027 | -6.04595 | 36292 ft | 420 kts | 278° |
| 2026-04-30 02:29 | 54.01203 | -6.14321 | 36285 ft | 420 kts | 278° |
| 2026-04-30 02:29 | 54.02378 | -6.24047 | 36286 ft | 420 kts | 278° |
| 2026-04-30 02:30 | 54.03551 | -6.33773 | 36297 ft | 420 kts | 278° |
| 2026-04-30 02:30 | 54.04731 | -6.43449 | 36285 ft | 421 kts | 278° |
| 2026-04-30 02:31 | 54.05933 | -6.53200 | 36287 ft | 421 kts | 278° |
| 2026-04-30 02:31 | 54.07143 | -6.62966 | 36281 ft | 422 kts | 277° |
| 2026-04-30 02:32 | 54.08381 | -6.72746 | 36275 ft | 423 kts | 278° |
| 2026-04-30 02:32 | 54.09630 | -6.82522 | 36269 ft | 423 kts | 278° |
| 2026-04-30 02:33 | 54.10887 | -6.92299 | 36273 ft | 422 kts | 278° |
| 2026-04-30 02:33 | 54.12145 | -7.02077 | 36267 ft | 422 kts | 278° |
| 2026-04-30 02:34 | 54.13404 | -7.11868 | 36269 ft | 423 kts | 278° |
| 2026-04-30 02:34 | 54.14665 | -7.21675 | 36262 ft | 424 kts | 278° |
| 2026-04-30 02:35 | 54.15927 | -7.31498 | 36264 ft | 424 kts | 278° |
| 2026-04-30 02:35 | 54.17189 | -7.41334 | 36263 ft | 424 kts | 278° |
| 2026-04-30 02:36 | 54.18449 | -7.51183 | 36264 ft | 425 kts | 278° |
| 2026-04-30 02:36 | 54.19704 | -7.61051 | 36259 ft | 425 kts | 278° |
| 2026-04-30 02:37 | 54.20959 | -7.70924 | 36256 ft | 425 kts | 278° |
| 2026-04-30 02:37 | 54.21824 | -7.75774 | 36229 ft | 433 kts | 293° |
| 2026-04-30 02:37 | 54.23509 | -7.80084 | 36272 ft | 443 kts | 312° |
| 2026-04-30 02:37 | 54.25913 | -7.83440 | 36250 ft | 451 kts | 330° |
| 2026-04-30 02:38 | 54.28818 | -7.85487 | 36257 ft | 456 kts | 348° |
| 2026-04-30 02:38 | 54.31968 | -7.86028 | 36272 ft | 457 kts | 6° |